createdAt,value
2018-06-24T03:54:12.285Z,13.70
2018-06-24T03:56:40.693Z,13.10
2018-06-24T03:59:09.043Z,13.10
2018-06-24T04:01:38.109Z,13.10
2018-06-24T04:04:06.534Z,13.00
2018-06-24T04:06:34.890Z,13.10
2018-06-24T04:09:03.513Z,13.10
2018-06-24T04:11:31.873Z,13.10
2018-06-24T04:14:00.181Z,13.10
2018-06-24T04:16:28.524Z,13.10
2018-06-24T04:18:56.899Z,13.10
2018-06-24T04:21:25.197Z,13.10
2018-06-24T04:23:53.570Z,13.10
2018-06-24T04:26:22.258Z,13.10
2018-06-24T04:28:50.622Z,13.10
2018-06-24T04:31:18.969Z,13.10
2018-06-24T04:33:47.499Z,13.10
2018-06-24T04:36:15.821Z,13.10
2018-06-24T04:38:44.232Z,13.10
2018-06-24T04:41:12.582Z,13.20
2018-06-24T04:43:40.917Z,13.20
2018-06-24T04:46:09.248Z,13.30
2018-06-24T04:48:37.597Z,13.20
2018-06-24T04:51:05.930Z,13.10
2018-06-24T04:53:34.243Z,13.10
2018-06-24T04:56:02.596Z,13.10
2018-06-24T04:58:30.953Z,13.30
2018-06-24T05:00:59.323Z,13.40
2018-06-24T05:03:27.693Z,13.50
2018-06-24T05:05:56.066Z,13.70
2018-06-24T05:08:24.389Z,13.70
2018-06-24T05:10:52.706Z,13.70
2018-06-24T05:13:21.047Z,13.70
2018-06-24T05:15:49.389Z,13.70
2018-06-24T05:18:17.753Z,13.80
2018-06-24T05:20:46.092Z,13.90
2018-06-24T05:23:14.444Z,14.00
2018-06-24T05:25:42.816Z,14.10
2018-06-24T05:28:11.241Z,14.20
2018-06-24T05:30:39.563Z,14.40
2018-06-24T05:33:07.977Z,14.40
2018-06-24T05:35:36.322Z,14.60
2018-06-24T05:38:05.512Z,14.70
2018-06-24T05:40:33.927Z,15.00
2018-06-24T05:43:02.353Z,14.90
2018-06-24T05:45:30.726Z,15.10
2018-06-24T05:47:59.171Z,15.30
2018-06-24T05:50:27.524Z,15.90
2018-06-24T05:52:55.847Z,16.00
2018-06-24T05:55:24.181Z,16.30
2018-06-24T05:57:52.570Z,16.30
2018-06-24T06:00:20.895Z,16.40
2018-06-24T06:02:49.247Z,16.60
2018-06-24T06:05:17.601Z,16.60
2018-06-24T06:07:45.915Z,16.50
2018-06-24T06:10:14.328Z,16.40
2018-06-24T06:12:42.575Z,16.20
2018-06-24T06:15:11.314Z,16.00
2018-06-24T06:17:40.005Z,16.50
2018-06-24T06:20:09.317Z,16.70
2018-06-24T06:22:37.724Z,17.00
2018-06-24T06:25:06.512Z,17.10
2018-06-24T06:27:35.390Z,17.10
2018-06-24T06:30:04.032Z,17.00
2018-06-24T06:32:32.405Z,16.80
2018-06-24T06:35:00.788Z,16.90
2018-06-24T06:37:29.088Z,16.80
2018-06-24T06:39:57.443Z,17.30
2018-06-24T06:42:25.788Z,17.40
2018-06-24T06:47:22.144Z,17.40
2018-06-24T06:49:50.521Z,17.20
2018-06-24T06:52:18.896Z,17.30
2018-06-24T06:54:47.233Z,16.90
2018-06-24T06:57:15.614Z,16.80
2018-06-24T06:59:43.928Z,17.30
2018-06-24T07:02:12.357Z,17.90
2018-06-24T07:04:40.678Z,17.90
2018-06-24T07:07:09.029Z,17.40
2018-06-24T07:09:37.371Z,17.20
2018-06-24T07:12:05.725Z,18.10
2018-06-24T07:14:34.035Z,18.60
2018-06-24T07:17:02.396Z,18.40
2018-06-24T07:19:30.728Z,18.50
2018-06-24T07:21:59.120Z,18.20
2018-06-24T07:24:27.958Z,18.30
2018-06-24T07:26:56.298Z,18.60
2018-06-24T07:29:25.030Z,18.40
2018-06-24T07:31:53.362Z,18.40
2018-06-24T07:34:22.681Z,18.10
2018-06-24T07:36:54.806Z,18.20
2018-06-24T07:39:23.669Z,18.30
2018-06-24T07:41:52.026Z,18.50
2018-06-24T07:44:20.358Z,18.30
2018-06-24T07:46:49.064Z,18.10
2018-06-24T07:49:17.632Z,18.30
2018-06-24T07:51:46.115Z,18.80
2018-06-24T07:54:15.019Z,18.90
2018-06-24T07:56:43.527Z,18.60
2018-06-24T07:59:11.894Z,18.40
2018-06-24T08:01:40.422Z,18.20
2018-06-24T08:04:09.242Z,17.80
2018-06-24T08:06:37.731Z,18.00
2018-06-24T08:09:14.286Z,18.10
2018-06-24T08:11:42.920Z,18.00
2018-06-24T08:14:11.378Z,17.80
2018-06-24T08:16:39.996Z,17.90
2018-06-24T08:19:08.447Z,17.80
2018-06-24T08:21:37.067Z,17.90
2018-06-24T08:24:05.617Z,18.00
2018-06-24T08:26:34.120Z,18.00
2018-06-24T08:29:02.808Z,18.20
2018-06-24T08:31:31.304Z,18.00
2018-06-24T08:36:28.144Z,18.00
2018-06-24T08:38:56.968Z,18.20
2018-06-24T08:41:25.547Z,18.00
2018-06-24T08:43:54.223Z,18.10
2018-06-24T08:46:22.966Z,18.30
2018-06-24T08:48:51.490Z,18.30
2018-06-24T08:51:20.403Z,18.60
2018-06-24T08:53:48.821Z,18.70
2018-06-24T08:56:17.266Z,18.80
2018-06-24T08:58:45.597Z,18.90
2018-06-24T09:01:14.718Z,19.00
2018-06-24T09:03:43.213Z,19.20
2018-06-24T09:06:12.070Z,19.30
2018-06-24T09:08:40.590Z,18.90
2018-06-24T09:11:09.750Z,18.90
2018-06-24T09:13:38.356Z,19.20
2018-06-24T09:16:06.775Z,19.20
2018-06-24T09:18:35.110Z,19.30
2018-06-24T09:21:04.624Z,19.60
2018-06-24T09:23:33.506Z,19.90
2018-06-24T09:26:01.924Z,20.20
2018-06-24T09:28:30.863Z,20.10
2018-06-24T09:30:59.211Z,20.00
2018-06-24T09:33:27.693Z,19.80
2018-06-24T09:35:56.035Z,19.30
2018-06-24T09:38:24.349Z,19.40
2018-06-24T09:40:52.731Z,19.40
2018-06-24T09:43:21.051Z,19.30
2018-06-24T09:45:49.426Z,19.30
2018-06-24T09:48:17.810Z,19.20
2018-06-24T09:50:46.151Z,19.60
2018-06-24T09:53:14.453Z,20.30
2018-06-24T09:55:42.810Z,20.40
2018-06-24T09:58:11.139Z,19.80
2018-06-24T10:00:39.578Z,19.50
2018-06-24T10:05:56.693Z,19.80
2018-06-24T10:08:25.021Z,19.50
2018-06-24T10:10:54.129Z,19.70
2018-06-24T10:13:22.453Z,19.70
2018-06-24T10:15:50.797Z,20.00
2018-06-24T10:18:21.339Z,20.10
2018-06-24T10:20:49.774Z,19.80
2018-06-24T10:23:18.275Z,19.80
2018-06-24T10:25:46.923Z,20.00
2018-06-24T10:28:16.330Z,20.30
2018-06-24T10:30:44.729Z,20.40
2018-06-24T10:33:13.049Z,20.60
2018-06-24T10:35:42.500Z,20.60
2018-06-24T10:38:10.959Z,20.50
2018-06-24T10:40:39.509Z,20.50
2018-06-24T10:43:08.046Z,20.30
2018-06-24T10:45:36.522Z,20.40
2018-06-24T10:48:07.426Z,20.70
2018-06-24T10:50:36.344Z,20.40
2018-06-24T10:53:05.777Z,20.30
2018-06-24T10:55:34.655Z,20.30
2018-06-24T10:58:03.836Z,20.00
2018-06-24T11:00:32.440Z,20.60
2018-06-24T11:03:00.935Z,20.40
2018-06-24T11:05:29.381Z,20.20
2018-06-24T11:07:57.751Z,20.40
2018-06-24T11:10:26.163Z,20.60
2018-06-24T11:12:54.806Z,20.60
2018-06-24T11:15:23.445Z,20.10
2018-06-24T11:17:52.011Z,20.20
2018-06-24T11:20:20.413Z,20.10
2018-06-24T11:22:49.094Z,20.40
2018-06-24T11:26:40.467Z,20.80
2018-06-24T11:29:09.225Z,20.80
2018-06-24T11:31:38.490Z,20.40
2018-06-24T11:34:07.961Z,20.50
2018-06-24T11:36:36.943Z,20.60
2018-06-24T11:39:08.049Z,20.80
2018-06-24T11:41:37.013Z,21.40
2018-06-24T11:44:05.662Z,21.20
2018-06-24T11:46:34.593Z,21.20
2018-06-24T11:49:03.844Z,21.30
2018-06-24T11:51:32.946Z,21.00
2018-06-24T11:54:01.340Z,21.10
2018-06-24T11:56:30.897Z,21.10
2018-06-24T11:58:59.731Z,21.10
2018-06-24T12:01:28.246Z,21.00
2018-06-24T12:03:56.573Z,21.10
2018-06-24T12:06:25.007Z,21.20
2018-06-24T12:08:53.337Z,21.00
2018-06-24T12:11:21.717Z,21.90
2018-06-24T12:13:50.246Z,22.50
2018-06-24T12:16:18.668Z,22.50
2018-06-24T12:18:47.119Z,22.50
2018-06-24T12:21:15.438Z,22.20
2018-06-24T12:23:43.724Z,22.10
2018-06-24T12:26:12.026Z,22.10
2018-06-24T12:28:40.551Z,21.80
2018-06-24T12:31:09.000Z,22.20
2018-06-24T12:33:52.316Z,22.20
2018-06-24T12:36:34.094Z,22.30
2018-06-24T12:39:04.487Z,22.20
2018-06-24T12:41:34.300Z,22.40
2018-06-24T12:44:03.326Z,22.40
2018-06-24T12:46:31.761Z,22.50
2018-06-24T12:49:00.214Z,22.30
2018-06-24T12:51:30.090Z,22.10
2018-06-24T12:53:58.471Z,22.20
2018-06-24T12:56:27.222Z,22.30
2018-06-24T12:58:55.846Z,22.20
2018-06-24T13:01:24.145Z,21.90
2018-06-24T13:03:52.658Z,22.10
2018-06-24T13:06:21.039Z,21.80
2018-06-24T13:08:49.542Z,21.90
2018-06-24T13:13:47.198Z,21.70
2018-06-24T13:16:15.637Z,21.80
2018-06-24T13:18:43.969Z,22.20
2018-06-24T13:21:12.463Z,22.00
2018-06-24T13:23:40.741Z,22.70
2018-06-24T13:26:09.223Z,22.30
2018-06-24T13:28:37.661Z,21.40
2018-06-24T13:31:06.899Z,21.40
2018-06-24T13:33:37.559Z,21.60
2018-06-24T13:36:06.866Z,21.50
2018-06-24T13:38:37.677Z,21.50
2018-06-24T13:41:06.082Z,21.80
2018-06-24T13:43:34.413Z,21.80
2018-06-24T13:48:30.878Z,21.70
2018-06-24T13:50:59.212Z,22.20
2018-06-24T13:53:28.950Z,21.80
2018-06-24T13:55:57.441Z,21.70
2018-06-24T13:58:26.070Z,21.60
2018-06-24T14:00:55.108Z,22.20
2018-06-24T14:03:24.286Z,22.50
2018-06-24T14:05:52.802Z,22.00
2018-06-24T14:08:21.229Z,21.90
2018-06-24T14:10:49.909Z,21.40
2018-06-24T14:13:19.215Z,21.20
2018-06-24T14:15:47.826Z,21.70
2018-06-24T14:18:16.604Z,21.70
2018-06-24T14:20:45.295Z,21.20
2018-06-24T14:23:16.445Z,20.80
2018-06-24T14:25:44.992Z,21.10
2018-06-24T14:28:13.699Z,21.30
2018-06-24T14:30:42.394Z,21.20
2018-06-24T14:33:11.423Z,21.00
2018-06-24T14:35:40.464Z,21.10
2018-06-24T14:38:10.691Z,21.10
2018-06-24T14:40:40.431Z,21.60
2018-06-24T14:43:09.006Z,21.80
2018-06-24T14:45:37.589Z,21.50
2018-06-24T14:48:06.495Z,21.10
2018-06-24T14:50:36.649Z,21.30
2018-06-24T14:53:05.773Z,21.00
2018-06-24T14:55:35.213Z,21.00
2018-06-24T14:58:04.339Z,21.00
2018-06-24T15:00:34.503Z,20.80
2018-06-24T15:03:08.213Z,20.70
2018-06-24T15:05:45.908Z,21.10
2018-06-24T15:08:15.435Z,21.00
2018-06-24T15:10:44.005Z,21.30
2018-06-24T15:13:17.576Z,21.10
2018-06-24T15:15:49.114Z,20.90
2018-06-24T15:18:19.181Z,21.10
2018-06-24T15:20:47.727Z,21.10
2018-06-24T15:23:16.970Z,20.50
2018-06-24T15:25:45.394Z,20.20
2018-06-24T15:28:14.107Z,20.30
2018-06-24T15:30:42.495Z,20.30
2018-06-24T15:33:10.883Z,20.20
2018-06-24T15:35:39.612Z,20.30
2018-06-24T15:38:08.122Z,20.30
2018-06-24T15:40:36.641Z,19.90
2018-06-24T15:43:05.233Z,19.80
2018-06-24T15:45:33.594Z,19.80
2018-06-24T15:48:02.002Z,19.70
2018-06-24T15:50:30.355Z,19.90
2018-06-24T15:52:58.694Z,20.00
2018-06-24T15:57:55.086Z,20.10
2018-06-24T16:00:23.487Z,19.90
2018-06-24T16:02:51.937Z,19.90
2018-06-24T16:05:20.422Z,19.90
2018-06-24T16:07:49.377Z,19.70
2018-06-24T16:10:17.713Z,19.50
2018-06-24T16:12:46.047Z,19.50
2018-06-24T16:15:14.451Z,19.60
2018-06-24T16:17:42.824Z,19.60
2018-06-24T16:20:11.265Z,19.50
2018-06-24T16:22:39.653Z,19.60
2018-06-24T16:25:08.337Z,19.40
2018-06-24T16:27:38.063Z,19.10
2018-06-24T16:30:06.501Z,19.30
2018-06-24T16:32:34.836Z,19.60
2018-06-24T16:35:03.266Z,19.70
2018-06-24T16:37:31.597Z,19.80
2018-06-24T16:39:59.914Z,20.10
2018-06-24T16:42:28.713Z,20.10
2018-06-24T16:44:57.105Z,20.20
2018-06-24T16:47:25.529Z,20.20
2018-06-24T16:49:54.002Z,20.40
2018-06-24T16:52:22.426Z,20.30
2018-06-24T16:54:50.781Z,19.90
2018-06-24T16:57:19.280Z,19.40
2018-06-24T16:59:47.632Z,19.20
2018-06-24T17:02:16.003Z,19.00
2018-06-24T17:04:44.373Z,19.00
2018-06-24T17:07:12.765Z,18.80
2018-06-24T17:09:41.161Z,18.50
2018-06-24T17:12:09.554Z,18.50
2018-06-24T17:14:37.850Z,18.60
2018-06-24T17:17:06.226Z,18.60
2018-06-24T17:19:34.557Z,18.60
2018-06-24T17:22:02.967Z,18.60
2018-06-24T17:24:31.310Z,18.50
2018-06-24T17:26:59.692Z,18.50
2018-06-24T17:29:28.216Z,18.50
2018-06-24T17:31:56.674Z,18.50
2018-06-24T17:34:25.531Z,18.40
2018-06-24T17:36:54.070Z,18.20
2018-06-24T17:39:22.437Z,18.20
2018-06-24T17:41:50.795Z,18.20
2018-06-24T17:44:19.174Z,18.10
2018-06-24T17:46:47.573Z,18.10
2018-06-24T17:49:16.023Z,18.20
2018-06-24T17:51:44.559Z,18.30
2018-06-24T17:54:12.929Z,18.10
2018-06-24T17:56:41.280Z,18.10
2018-06-24T17:59:09.744Z,18.10
2018-06-24T18:01:43.551Z,18.10
2018-06-24T18:04:11.933Z,18.10
2018-06-24T18:06:40.265Z,17.90
2018-06-24T18:09:10.334Z,17.70
2018-06-24T18:11:39.025Z,17.90
2018-06-24T18:14:07.582Z,18.00
2018-06-24T18:16:35.929Z,18.20
2018-06-24T18:19:04.358Z,18.30
2018-06-24T18:21:32.703Z,18.10
2018-06-24T18:24:08.881Z,18.00
2018-06-24T18:26:37.318Z,18.20
2018-06-24T18:29:05.696Z,18.30
2018-06-24T18:31:34.024Z,18.20
2018-06-24T18:34:02.538Z,18.00
2018-06-24T18:36:31.115Z,18.20
2018-06-24T18:38:59.610Z,18.30
2018-06-24T18:41:28.073Z,18.20
2018-06-24T18:43:56.577Z,18.30
2018-06-24T18:46:24.949Z,18.30
2018-06-24T18:48:53.273Z,18.30
2018-06-24T18:51:21.875Z,18.00
2018-06-24T18:53:50.361Z,18.00
2018-06-24T18:56:18.802Z,17.70
2018-06-24T18:58:47.165Z,17.80
2018-06-24T19:01:15.507Z,17.60
2018-06-24T19:03:43.982Z,17.50
2018-06-24T19:06:13.252Z,17.70
2018-06-24T19:08:50.396Z,17.70
2018-06-24T19:11:19.162Z,17.50
2018-06-24T19:13:53.814Z,17.70
2018-06-24T19:22:30.527Z,17.70
2018-06-24T19:24:58.917Z,17.60
2018-06-24T19:27:27.279Z,17.70
2018-06-24T19:29:55.723Z,18.00
2018-06-24T19:32:24.291Z,18.00
2018-06-24T19:34:52.704Z,17.60
2018-06-24T19:37:21.218Z,17.70
2018-06-24T19:39:49.820Z,17.70
2018-06-24T19:42:18.201Z,17.60
2018-06-24T19:44:46.853Z,17.60
2018-06-24T19:47:15.334Z,17.50
2018-06-24T19:49:43.752Z,17.60
2018-06-24T19:52:12.134Z,17.40
2018-06-24T19:54:40.506Z,17.30
2018-06-24T19:57:14.209Z,17.60
2018-06-24T19:59:42.623Z,17.50
2018-06-24T20:02:10.961Z,17.20
2018-06-24T20:04:39.302Z,17.20
2018-06-24T20:07:07.990Z,17.40
2018-06-24T20:09:36.581Z,17.30
2018-06-24T20:12:05.881Z,17.40
2018-06-24T20:14:34.715Z,17.20
2018-06-24T20:17:03.644Z,17.30
2018-06-24T20:19:32.701Z,17.50
2018-06-24T20:22:01.356Z,17.50
2018-06-24T20:24:35.197Z,17.60
2018-06-24T20:30:02.807Z,17.30
2018-06-24T20:35:22.435Z,17.10
2018-06-24T20:38:13.901Z,17.20
2018-06-24T20:44:34.554Z,17.10
2018-06-24T20:47:13.845Z,17.10
2018-06-24T20:49:44.506Z,16.60
2018-06-24T20:52:14.322Z,16.20
2018-06-24T20:54:43.617Z,16.10
2018-06-24T20:57:13.560Z,16.10
2018-06-24T20:59:54.203Z,16.10
2018-06-24T21:02:27.855Z,16.10
2018-06-24T21:05:00.428Z,16.20
2018-06-24T21:11:47.996Z,16.30
2018-06-24T21:14:16.791Z,16.20
2018-06-24T21:16:45.615Z,16.40
2018-06-24T21:19:14.594Z,16.30
2018-06-24T21:21:43.197Z,16.30
2018-06-24T21:24:11.761Z,16.30
2018-06-24T21:26:40.242Z,16.50
2018-06-24T21:29:08.682Z,16.40
2018-06-24T21:34:06.287Z,16.70
2018-06-24T21:39:03.046Z,16.60
2018-06-24T21:41:31.774Z,16.60
2018-06-24T21:44:00.194Z,16.50
2018-06-24T21:46:29.919Z,16.60
2018-06-24T21:48:59.223Z,16.30
2018-06-24T21:51:28.388Z,16.20
2018-06-24T21:53:57.982Z,16.10
2018-06-24T21:56:26.840Z,16.30
2018-06-24T21:58:55.874Z,16.20
2018-06-24T22:01:24.426Z,16.20
2018-06-24T22:03:54.033Z,16.00
2018-06-24T22:06:23.184Z,16.00
2018-06-24T22:08:51.977Z,16.00
2018-06-24T22:11:20.575Z,16.10
2018-06-24T22:13:49.054Z,16.00
2018-06-24T22:16:17.935Z,16.00
2018-06-24T22:18:46.406Z,16.00
2018-06-24T22:21:14.974Z,16.00
2018-06-24T22:23:43.606Z,16.00
2018-06-24T22:26:12.490Z,16.00
2018-06-24T22:28:41.361Z,16.00
2018-06-24T22:31:10.201Z,16.20
2018-06-24T22:33:38.994Z,16.10
2018-06-24T22:36:07.603Z,16.00
2018-06-24T22:38:36.421Z,15.90
2018-06-24T22:41:04.953Z,15.90
2018-06-24T22:43:33.866Z,15.90
2018-06-24T22:46:02.639Z,15.90
2018-06-24T22:48:31.114Z,15.60
2018-06-24T22:50:59.542Z,15.40
2018-06-24T22:53:28.397Z,15.30
2018-06-24T22:55:56.908Z,15.30
2018-06-24T22:58:25.600Z,15.30
2018-06-24T23:00:54.119Z,15.40
2018-06-24T23:03:22.437Z,15.40
2018-06-24T23:05:50.783Z,15.40
2018-06-24T23:08:19.117Z,15.40
2018-06-24T23:10:47.489Z,15.40
2018-06-24T23:13:15.810Z,15.40
2018-06-24T23:15:44.189Z,15.50
2018-06-24T23:18:12.538Z,15.30
2018-06-24T23:20:40.883Z,15.30
2018-06-24T23:23:09.210Z,15.30
2018-06-24T23:25:37.533Z,15.50
2018-06-24T23:28:06.109Z,15.50
2018-06-24T23:30:34.422Z,15.60
2018-06-24T23:33:02.746Z,15.60
2018-06-24T23:35:31.073Z,15.40
2018-06-24T23:37:59.389Z,15.50
2018-06-24T23:40:27.750Z,15.60
2018-06-24T23:42:56.045Z,15.50
2018-06-24T23:45:24.429Z,15.50
2018-06-24T23:47:52.825Z,15.40
2018-06-24T23:50:21.145Z,15.40
2018-06-24T23:52:49.481Z,15.50
2018-06-24T23:55:17.789Z,15.50
2018-06-24T23:57:46.463Z,15.50
